EHRD

Rotterdam Airport

Rotterdam, The Netherlands
TAF COR EHRD 182350Z 1900/2006 15007KT 2000 BR OVC002 PROB30 TEMPO 1900/1902 0500 FZFG BKN001 BECMG 1902/1905 6000 NSW NSC BECMG 1905/1908 CAVOK BECMG 1915/1918 10007KT
Issued Valid From Valid To
Jan-18 @ 23:50 UTC
(2 hours ago)
Jan-19 @ 00:00 UTC
(2 hours ago)
Jan-20 @ 06:00 UTC
(-1 days ago)
Expired Click to View Jan-19 @ 00:00 to Jan-19 @ 02:00
TAF COR EHRD 182350Z 1900/2006 15007KT 2000 BR OVC002
Wind Visibility Clouds Conditions
150° at 7 knots 1,996 meters
  • Overcast at 200' AGL
  • Mist
Expired Click to View Jan-19 @ 00:00 to Jan-19 @ 02:00
PROB30 TEMPO 1900/1902 0500 FZFG BKN001
Visibility Clouds Conditions
499 meters
  • Broken at 100' AGL
  • Freezing
  • Fog
Becoming Jan-19 @ 02:00 to Jan-19 @ 05:00
BECMG 1902/1905 6000 NSW NSC
Wind Visibility Clouds Conditions
150° at 7 knots 6,003 meters
  • No significant clouds
Becoming Jan-19 @ 05:00 to Jan-19 @ 15:00
BECMG 1905/1908 CAVOK
Wind Visibility Clouds Conditions
150° at 7 knots 10,000+ meters
  • No significant clouds
Becoming Jan-19 @ 15:00 to Jan-20 @ 06:00
BECMG 1915/1918 10007KT
Wind Visibility Clouds Conditions
100° at 7 knots 10,000+ meters
  • No significant clouds
TAF COR EHRD 182350Z 1900/2006 15007KT 2000 BR OVC002 PROB30 TEMPO 1900/1902 0500 FZFG BKN001 BECMG 1902/1905 6000 NSW NSC BECMG 1905/1908 CAVOK BECMG 1915/1918 10007KT
Issued Jan-18 @ 23:50 UTC
(2 hours ago)
Valid From Jan-19 @ 00:00 UTC
(2 hours ago)
Valid To Jan-20 @ 06:00 UTC
(-1 days ago)
Jan-19 @ 00:00 - Jan-19 @ 02:00
Wind Visibility
150° at 7 knots 1,996 meters
Clouds
  • Overcast at 200' AGL
Conditions
  • Mist
Jan-19 @ 00:00 - Jan-19 @ 02:00
Clouds
  • Broken at 100' AGL
Conditions
  • Freezing
  • Fog
Becoming Jan-19 @ 02:00 - Jan-19 @ 05:00
Wind Visibility
150° at 7 knots 6,003 meters
Clouds
  • No significant clouds
Conditions
Becoming Jan-19 @ 05:00 - Jan-19 @ 15:00
Wind Visibility
150° at 7 knots 10,000+ meters
Clouds
  • No significant clouds
Conditions
Becoming Jan-19 @ 15:00 - Jan-20 @ 06:00
Wind Visibility
100° at 7 knots 10,000+ meters
Clouds
  • No significant clouds
Conditions